createdAt,value
2022-11-24T00:05:03.923Z,88.54
2022-11-24T00:10:35.800Z,88.06
2022-11-24T00:16:07.232Z,88.24
2022-11-24T00:21:39.294Z,88.24
2022-11-24T00:27:16.834Z,87.99
2022-11-24T00:32:54.683Z,87.82
2022-11-24T00:38:26.337Z,87.84
2022-11-24T00:43:58.860Z,87.68
2022-11-24T00:49:36.431Z,87.60
2022-11-24T00:55:14.292Z,87.70
2022-11-24T01:00:52.031Z,87.89
2022-11-24T01:06:29.805Z,88.80
2022-11-24T01:12:01.868Z,89.03
2022-11-24T01:17:33.488Z,89.34
2022-11-24T01:23:05.306Z,88.89
2022-11-24T01:28:47.038Z,88.91
2022-11-24T01:34:20.443Z,88.76
2022-11-24T01:39:52.294Z,88.86
2022-11-24T01:45:29.763Z,88.79
2022-11-24T01:51:01.574Z,88.35
2022-11-24T01:56:33.318Z,88.51
2022-11-24T02:02:11.002Z,88.44
2022-11-24T02:07:42.835Z,88.62
2022-11-24T02:13:20.627Z,88.43
2022-11-24T02:18:52.179Z,88.12
2022-11-24T02:24:23.761Z,88.23
2022-11-24T02:29:55.410Z,87.96
2022-11-24T02:37:48.419Z,87.53
2022-11-24T02:43:20.086Z,87.61
2022-11-24T02:48:57.689Z,87.44
2022-11-24T02:54:29.231Z,87.13
2022-11-24T03:00:07.151Z,87.43
2022-11-24T03:05:38.944Z,87.19
2022-11-24T03:11:10.618Z,87.46
2022-11-24T03:16:48.688Z,87.42
2022-11-24T03:22:26.128Z,87.34
2022-11-24T03:27:57.868Z,87.16
2022-11-24T03:33:29.909Z,87.38
2022-11-24T03:39:07.468Z,87.38
2022-11-24T03:44:39.225Z,87.47
2022-11-24T03:50:11.112Z,87.65
2022-11-24T03:55:48.674Z,87.76
2022-11-24T04:01:27.886Z,87.65
2022-11-24T04:07:05.545Z,87.32
2022-11-24T04:12:43.376Z,87.19
2022-11-24T04:18:21.351Z,87.35
2022-11-24T04:20:44.164Z,87.40
2022-11-24T04:26:14.940Z,87.12
2022-11-24T04:31:45.931Z,87.36
2022-11-24T04:37:24.575Z,87.22
2022-11-24T04:43:02.217Z,87.23
2022-11-24T04:48:39.613Z,87.14
2022-11-24T04:59:46.820Z,86.98
2022-11-24T05:05:24.672Z,86.97
2022-11-24T05:11:02.448Z,87.10
2022-11-24T05:16:34.231Z,87.15
2022-11-24T05:22:11.997Z,87.04
2022-11-24T05:27:49.399Z,87.03
2022-11-24T05:33:26.511Z,87.37
2022-11-24T05:39:03.891Z,87.51
2022-11-24T05:44:41.657Z,87.25
2022-11-24T05:50:21.240Z,87.20
2022-11-24T05:55:59.085Z,87.17
2022-11-24T06:01:37.012Z,86.61
2022-11-24T06:07:14.796Z,86.44
2022-11-24T06:12:46.468Z,86.20
2022-11-24T06:18:19.242Z,85.86
2022-11-24T06:26:11.520Z,85.44
2022-11-24T06:31:43.155Z,85.55
2022-11-24T06:37:14.910Z,84.87
2022-11-24T06:42:46.586Z,84.78
2022-11-24T06:48:18.529Z,84.28
2022-11-24T06:53:50.193Z,84.14
2022-11-24T06:59:21.873Z,84.20
2022-11-24T07:04:53.946Z,83.29
2022-11-24T07:10:25.615Z,83.40
2022-11-24T07:15:57.320Z,83.36
2022-11-24T07:21:29.175Z,83.11
2022-11-24T07:27:01.005Z,82.92
2022-11-24T07:32:32.791Z,82.61
2022-11-24T07:38:04.622Z,82.74
2022-11-24T07:43:36.374Z,82.70
2022-11-24T07:49:14.201Z,82.73
2022-11-24T07:54:45.996Z,82.01
2022-11-24T08:00:19.837Z,81.64
2022-11-24T08:11:29.351Z,79.87
2022-11-24T08:17:01.107Z,79.65
2022-11-24T08:22:38.462Z,76.81
2022-11-24T08:28:10.449Z,74.99
2022-11-24T08:33:42.119Z,72.62
2022-11-24T08:39:13.817Z,70.66
2022-11-24T08:44:45.659Z,70.39
2022-11-24T08:50:23.454Z,69.74
2022-11-24T08:55:55.286Z,71.61
2022-11-24T09:01:27.318Z,70.90
2022-11-24T09:06:58.978Z,70.93
2022-11-24T09:12:30.961Z,70.13
2022-11-24T09:18:02.819Z,70.57
2022-11-24T09:23:34.386Z,71.48
2022-11-24T09:29:06.167Z,71.30
2022-11-24T09:34:37.920Z,70.65
2022-11-24T09:40:09.911Z,69.84
2022-11-24T09:46:05.083Z,70.07
2022-11-24T09:51:19.951Z,70.22
2022-11-24T09:56:58.354Z,70.35
2022-11-24T10:02:30.174Z,69.85
2022-11-24T10:08:02.225Z,70.02
2022-11-24T10:13:34.626Z,69.92
2022-11-24T10:19:08.351Z,70.26
2022-11-24T10:24:40.233Z,71.91
2022-11-24T10:30:12.320Z,75.69
2022-11-24T10:35:43.992Z,77.45
2022-11-24T10:41:15.811Z,80.03
2022-11-24T10:46:48.120Z,81.77
2022-11-24T10:52:20.086Z,83.51
2022-11-24T10:57:51.991Z,84.72
2022-11-24T11:03:23.939Z,85.34
2022-11-24T11:09:01.995Z,85.61
2022-11-24T11:14:33.979Z,85.31
2022-11-24T11:20:06.300Z,84.39
2022-11-24T11:25:37.742Z,83.90
2022-11-24T11:31:19.187Z,85.12
2022-11-24T11:39:04.774Z,85.61
2022-11-24T11:44:36.766Z,85.46
2022-11-24T11:50:08.414Z,85.65
2022-11-24T11:55:41.993Z,86.80
2022-11-24T12:01:11.921Z,86.96
2022-11-24T12:06:43.326Z,87.16
2022-11-24T12:12:15.195Z,86.25
2022-11-24T12:17:46.949Z,85.89
2022-11-24T12:23:18.431Z,85.63
2022-11-24T12:28:56.040Z,85.50
2022-11-24T12:34:27.845Z,86.20
2022-11-24T12:39:59.687Z,85.02
2022-11-24T12:45:37.681Z,86.06
2022-11-24T12:51:09.330Z,85.88
2022-11-24T12:56:46.878Z,85.57
2022-11-24T13:02:18.456Z,85.39
2022-11-24T13:13:27.858Z,85.98
2022-11-24T13:18:59.727Z,86.26
2022-11-24T13:24:31.483Z,85.35
2022-11-24T13:35:36.942Z,84.42
2022-11-24T13:41:28.136Z,83.74
2022-11-24T13:46:43.778Z,83.94
2022-11-24T13:52:21.370Z,83.68
2022-11-24T13:57:53.157Z,83.32
2022-11-24T14:03:24.620Z,83.50
2022-11-24T14:08:56.341Z,83.09
2022-11-24T14:14:34.377Z,83.28
2022-11-24T14:25:49.412Z,82.47
2022-11-24T14:31:27.301Z,82.86
2022-11-24T14:36:59.071Z,83.21
2022-11-24T14:42:36.672Z,83.60
2022-11-24T14:48:08.555Z,83.07
2022-11-24T14:53:40.383Z,84.00
2022-11-24T14:59:12.173Z,83.25
2022-11-24T15:05:05.813Z,82.65
2022-11-24T15:10:21.812Z,82.52
2022-11-24T15:15:57.569Z,82.76
2022-11-24T15:21:25.021Z,83.38
2022-11-24T15:26:56.739Z,83.57
2022-11-24T15:32:34.356Z,83.74
2022-11-24T15:38:05.919Z,83.93
2022-11-24T15:43:37.701Z,84.30
2022-11-24T15:49:15.194Z,84.92
2022-11-24T15:54:46.623Z,84.99
2022-11-24T16:00:18.525Z,85.54
2022-11-24T16:05:50.210Z,85.85
2022-11-24T16:11:21.936Z,86.02
2022-11-24T16:16:53.875Z,85.62
2022-11-24T16:22:25.660Z,86.58
2022-11-24T16:27:57.370Z,86.55
2022-11-24T16:33:29.132Z,87.06
2022-11-24T16:39:01.029Z,86.16
2022-11-24T16:44:33.214Z,86.74
2022-11-24T16:50:04.577Z,85.25
2022-11-24T16:55:36.108Z,86.38
2022-11-24T17:01:07.810Z,86.21
2022-11-24T17:06:39.679Z,86.48
2022-11-24T17:12:11.699Z,86.16
2022-11-24T17:18:08.309Z,86.04
2022-11-24T17:23:15.345Z,86.70
2022-11-24T17:28:46.970Z,87.02
2022-11-24T17:34:18.692Z,86.96
2022-11-24T17:45:19.655Z,87.00
2022-11-24T17:50:51.559Z,87.18
2022-11-24T17:56:23.231Z,87.39
2022-11-24T18:07:24.529Z,87.43
2022-11-24T18:12:56.031Z,87.66
2022-11-24T18:18:27.794Z,87.49
2022-11-24T18:29:28.930Z,87.39
2022-11-24T18:35:00.699Z,87.50
2022-11-24T18:40:32.369Z,87.38
2022-11-24T18:46:04.316Z,87.28
2022-11-24T18:57:07.879Z,87.93
2022-11-24T19:02:39.722Z,88.05
2022-11-24T19:13:43.235Z,88.14
2022-11-24T19:24:48.776Z,88.69
2022-11-24T19:30:20.436Z,88.59
2022-11-24T19:36:00.883Z,88.48
2022-11-24T19:41:32.730Z,88.40
2022-11-24T19:47:04.585Z,88.47
2022-11-24T19:52:36.290Z,88.40
2022-11-24T20:03:37.193Z,88.11
2022-11-24T20:14:42.775Z,85.95
2022-11-24T20:20:14.748Z,86.36
2022-11-24T20:25:46.436Z,85.77
2022-11-24T20:36:51.910Z,87.12
2022-11-24T20:42:23.621Z,87.73
2022-11-24T20:53:24.909Z,86.17
2022-11-24T21:04:28.518Z,88.24
2022-11-24T21:10:00.337Z,88.83
2022-11-24T21:15:32.228Z,88.80
2022-11-24T21:21:03.854Z,89.13
2022-11-24T21:26:35.825Z,89.20
2022-11-24T21:32:07.724Z,88.39
2022-11-24T21:37:39.366Z,88.91
2022-11-24T21:43:11.001Z,89.04
2022-11-24T21:48:42.889Z,88.28
2022-11-24T21:54:14.529Z,88.73
2022-11-24T21:59:46.569Z,89.26
2022-11-24T22:07:39.389Z,89.33
2022-11-24T22:13:10.655Z,89.44
2022-11-24T22:18:42.253Z,89.57
2022-11-24T22:24:13.905Z,89.50
2022-11-24T22:29:49.986Z,89.37
2022-11-24T22:35:17.549Z,89.02
2022-11-24T22:46:21.151Z,89.67
2022-11-24T22:57:24.579Z,89.62
2022-11-24T23:02:56.288Z,89.73
2022-11-24T23:08:29.155Z,89.96
2022-11-24T23:14:00.854Z,89.99
2022-11-24T23:19:32.696Z,89.94
2022-11-24T23:25:10.290Z,89.85
2022-11-24T23:30:41.997Z,89.26
2022-11-24T23:36:19.868Z,88.74
2022-11-24T23:41:51.534Z,89.78
2022-11-24T23:47:23.256Z,89.80
2022-11-24T23:52:55.136Z,90.15
2022-11-24T23:58:26.442Z,90.11
